sensor_id;sensor_type;location;lat;lon;timestamp;P1;durP1;ratioP1;P2;durP2;ratioP2
64520;SDS011;50896;46.714;17.322;2023-12-20T00:02:15;64.60;;;30.80;;
64520;SDS011;50896;46.714;17.322;2023-12-20T00:04:42;74.72;;;28.83;;
64520;SDS011;50896;46.714;17.322;2023-12-20T00:07:09;60.85;;;29.33;;
64520;SDS011;50896;46.714;17.322;2023-12-20T00:09:36;76.47;;;31.33;;
64520;SDS011;50896;46.714;17.322;2023-12-20T00:12:03;69.50;;;30.80;;
64520;SDS011;50896;46.714;17.322;2023-12-20T00:14:30;88.90;;;29.90;;
64520;SDS011;50896;46.714;17.322;2023-12-20T00:16:56;60.33;;;27.95;;
64520;SDS011;50896;46.714;17.322;2023-12-20T00:19:23;61.55;;;29.55;;
64520;SDS011;50896;46.714;17.322;2023-12-20T00:21:50;62.65;;;30.83;;
64520;SDS011;50896;46.714;17.322;2023-12-20T00:24:17;101.70;;;30.30;;
64520;SDS011;50896;46.714;17.322;2023-12-20T00:26:45;57.20;;;27.23;;
64520;SDS011;50896;46.714;17.322;2023-12-20T00:29:12;106.00;;;31.55;;
64520;SDS011;50896;46.714;17.322;2023-12-20T00:31:38;61.33;;;28.85;;
64520;SDS011;50896;46.714;17.322;2023-12-20T00:34:05;65.72;;;30.48;;
64520;SDS011;50896;46.714;17.322;2023-12-20T00:36:32;59.40;;;29.58;;
64520;SDS011;50896;46.714;17.322;2023-12-20T00:38:59;70.30;;;30.83;;
64520;SDS011;50896;46.714;17.322;2023-12-20T00:41:26;57.13;;;28.45;;
64520;SDS011;50896;46.714;17.322;2023-12-20T00:43:53;63.40;;;27.48;;
64520;SDS011;50896;46.714;17.322;2023-12-20T00:46:20;107.22;;;27.65;;
64520;SDS011;50896;46.714;17.322;2023-12-20T00:48:47;69.43;;;28.23;;
64520;SDS011;50896;46.714;17.322;2023-12-20T00:51:14;53.05;;;26.23;;
64520;SDS011;50896;46.714;17.322;2023-12-20T00:53:41;70.82;;;26.90;;
64520;SDS011;50896;46.714;17.322;2023-12-20T00:56:09;50.97;;;25.17;;
64520;SDS011;50896;46.714;17.322;2023-12-20T00:58:36;49.40;;;24.33;;
64520;SDS011;50896;46.714;17.322;2023-12-20T01:01:03;76.40;;;27.27;;
64520;SDS011;50896;46.714;17.322;2023-12-20T01:03:30;52.60;;;25.42;;
64520;SDS011;50896;46.714;17.322;2023-12-20T01:05:57;48.25;;;23.05;;
64520;SDS011;50896;46.714;17.322;2023-12-20T01:08:24;57.88;;;25.95;;
64520;SDS011;50896;46.714;17.322;2023-12-20T01:10:50;55.72;;;23.92;;
64520;SDS011;50896;46.714;17.322;2023-12-20T01:13:18;62.95;;;24.23;;
64520;SDS011;50896;46.714;17.322;2023-12-20T01:15:45;80.47;;;24.50;;
64520;SDS011;50896;46.714;17.322;2023-12-20T01:18:12;53.63;;;22.95;;
64520;SDS011;50896;46.714;17.322;2023-12-20T01:20:39;48.63;;;24.10;;
64520;SDS011;50896;46.714;17.322;2023-12-20T01:23:07;63.78;;;22.67;;
64520;SDS011;50896;46.714;17.322;2023-12-20T01:25:33;45.85;;;22.38;;
64520;SDS011;50896;46.714;17.322;2023-12-20T01:28:00;51.47;;;22.23;;
64520;SDS011;50896;46.714;17.322;2023-12-20T01:30:29;39.15;;;21.35;;
64520;SDS011;50896;46.714;17.322;2023-12-20T01:32:56;56.53;;;21.30;;
64520;SDS011;50896;46.714;17.322;2023-12-20T01:35:23;42.65;;;21.77;;
64520;SDS011;50896;46.714;17.322;2023-12-20T01:37:50;49.60;;;23.15;;
64520;SDS011;50896;46.714;17.322;2023-12-20T01:40:17;51.85;;;22.05;;
64520;SDS011;50896;46.714;17.322;2023-12-20T01:42:44;58.15;;;22.17;;
64520;SDS011;50896;46.714;17.322;2023-12-20T01:45:11;59.60;;;22.38;;
64520;SDS011;50896;46.714;17.322;2023-12-20T01:47:38;44.85;;;22.15;;
64520;SDS011;50896;46.714;17.322;2023-12-20T01:50:05;43.67;;;21.60;;
64520;SDS011;50896;46.714;17.322;2023-12-20T01:52:35;52.63;;;22.40;;
64520;SDS011;50896;46.714;17.322;2023-12-20T01:55:02;51.20;;;21.25;;
64520;SDS011;50896;46.714;17.322;2023-12-20T01:57:30;111.13;;;23.20;;
64520;SDS011;50896;46.714;17.322;2023-12-20T01:59:58;71.32;;;23.13;;
64520;SDS011;50896;46.714;17.322;2023-12-20T02:02:25;60.30;;;23.58;;
64520;SDS011;50896;46.714;17.322;2023-12-20T02:04:54;53.45;;;23.25;;
64520;SDS011;50896;46.714;17.322;2023-12-20T02:07:22;60.15;;;23.10;;
64520;SDS011;50896;46.714;17.322;2023-12-20T02:09:50;76.57;;;24.90;;
64520;SDS011;50896;46.714;17.322;2023-12-20T02:12:17;49.85;;;22.83;;
64520;SDS011;50896;46.714;17.322;2023-12-20T02:14:45;47.95;;;22.83;;
64520;SDS011;50896;46.714;17.322;2023-12-20T02:17:12;58.00;;;24.67;;
64520;SDS011;50896;46.714;17.322;2023-12-20T02:19:39;50.60;;;22.80;;
64520;SDS011;50896;46.714;17.322;2023-12-20T02:22:07;63.63;;;23.85;;
64520;SDS011;50896;46.714;17.322;2023-12-20T02:24:35;50.88;;;23.52;;
64520;SDS011;50896;46.714;17.322;2023-12-20T02:27:02;67.72;;;24.40;;
64520;SDS011;50896;46.714;17.322;2023-12-20T02:29:29;62.92;;;24.48;;
64520;SDS011;50896;46.714;17.322;2023-12-20T02:31:57;49.05;;;24.55;;
64520;SDS011;50896;46.714;17.322;2023-12-20T02:34:24;51.70;;;23.55;;
64520;SDS011;50896;46.714;17.322;2023-12-20T02:36:51;51.13;;;24.95;;
64520;SDS011;50896;46.714;17.322;2023-12-20T02:39:18;50.58;;;24.08;;
64520;SDS011;50896;46.714;17.322;2023-12-20T02:41:45;55.38;;;23.40;;
64520;SDS011;50896;46.714;17.322;2023-12-20T02:44:12;49.88;;;24.40;;
64520;SDS011;50896;46.714;17.322;2023-12-20T02:46:39;55.60;;;25.17;;
64520;SDS011;50896;46.714;17.322;2023-12-20T02:49:06;52.42;;;25.30;;
64520;SDS011;50896;46.714;17.322;2023-12-20T02:51:33;67.97;;;24.25;;
64520;SDS011;50896;46.714;17.322;2023-12-20T02:54:00;60.95;;;23.88;;
64520;SDS011;50896;46.714;17.322;2023-12-20T02:56:27;71.50;;;25.10;;
64520;SDS011;50896;46.714;17.322;2023-12-20T02:58:54;57.15;;;24.58;;
64520;SDS011;50896;46.714;17.322;2023-12-20T03:01:21;50.83;;;24.60;;
64520;SDS011;50896;46.714;17.322;2023-12-20T03:03:48;45.67;;;23.00;;
64520;SDS011;50896;46.714;17.322;2023-12-20T03:06:18;60.13;;;24.27;;
64520;SDS011;50896;46.714;17.322;2023-12-20T03:08:45;50.42;;;24.25;;
64520;SDS011;50896;46.714;17.322;2023-12-20T03:11:12;54.85;;;23.50;;
64520;SDS011;50896;46.714;17.322;2023-12-20T03:13:40;70.45;;;25.15;;
64520;SDS011;50896;46.714;17.322;2023-12-20T03:16:13;53.58;;;25.33;;
64520;SDS011;50896;46.714;17.322;2023-12-20T03:18:40;50.63;;;25.15;;
64520;SDS011;50896;46.714;17.322;2023-12-20T03:21:07;51.70;;;24.75;;
64520;SDS011;50896;46.714;17.322;2023-12-20T03:23:34;64.30;;;25.90;;
64520;SDS011;50896;46.714;17.322;2023-12-20T03:26:01;61.88;;;24.92;;
64520;SDS011;50896;46.714;17.322;2023-12-20T03:28:29;49.63;;;24.63;;
64520;SDS011;50896;46.714;17.322;2023-12-20T03:30:56;61.90;;;24.05;;
64520;SDS011;50896;46.714;17.322;2023-12-20T03:33:23;46.10;;;23.20;;
64520;SDS011;50896;46.714;17.322;2023-12-20T03:35:50;50.97;;;25.10;;
64520;SDS011;50896;46.714;17.322;2023-12-20T03:38:17;65.28;;;22.45;;
64520;SDS011;50896;46.714;17.322;2023-12-20T03:40:44;50.10;;;24.98;;
64520;SDS011;50896;46.714;17.322;2023-12-20T03:43:11;57.08;;;25.23;;
64520;SDS011;50896;46.714;17.322;2023-12-20T03:45:38;58.45;;;24.02;;
64520;SDS011;50896;46.714;17.322;2023-12-20T03:48:05;127.22;;;26.25;;
64520;SDS011;50896;46.714;17.322;2023-12-20T03:50:33;57.83;;;22.42;;
64520;SDS011;50896;46.714;17.322;2023-12-20T03:53:01;47.15;;;24.02;;
64520;SDS011;50896;46.714;17.322;2023-12-20T03:55:28;48.90;;;23.30;;
64520;SDS011;50896;46.714;17.322;2023-12-20T03:57:54;47.70;;;22.67;;
64520;SDS011;50896;46.714;17.322;2023-12-20T04:00:22;53.88;;;23.73;;
64520;SDS011;50896;46.714;17.322;2023-12-20T04:02:48;56.15;;;23.77;;
64520;SDS011;50896;46.714;17.322;2023-12-20T04:05:15;49.10;;;23.33;;
64520;SDS011;50896;46.714;17.322;2023-12-20T04:07:42;51.95;;;22.15;;
64520;SDS011;50896;46.714;17.322;2023-12-20T04:10:10;50.08;;;23.48;;
64520;SDS011;50896;46.714;17.322;2023-12-20T04:12:37;47.45;;;22.85;;
64520;SDS011;50896;46.714;17.322;2023-12-20T04:15:04;56.95;;;24.88;;
64520;SDS011;50896;46.714;17.322;2023-12-20T04:17:36;53.28;;;24.40;;
64520;SDS011;50896;46.714;17.322;2023-12-20T04:20:03;53.65;;;25.08;;
64520;SDS011;50896;46.714;17.322;2023-12-20T04:22:31;59.22;;;26.50;;
64520;SDS011;50896;46.714;17.322;2023-12-20T04:24:57;78.20;;;29.17;;
64520;SDS011;50896;46.714;17.322;2023-12-20T04:27:24;65.68;;;28.05;;
64520;SDS011;50896;46.714;17.322;2023-12-20T04:29:51;71.40;;;29.10;;
64520;SDS011;50896;46.714;17.322;2023-12-20T04:32:18;72.78;;;30.10;;
64520;SDS011;50896;46.714;17.322;2023-12-20T04:34:45;73.38;;;31.00;;
64520;SDS011;50896;46.714;17.322;2023-12-20T04:37:12;70.50;;;30.55;;
64520;SDS011;50896;46.714;17.322;2023-12-20T04:39:39;66.60;;;29.23;;
64520;SDS011;50896;46.714;17.322;2023-12-20T04:42:07;64.38;;;29.60;;
64520;SDS011;50896;46.714;17.322;2023-12-20T04:44:34;68.60;;;28.42;;
64520;SDS011;50896;46.714;17.322;2023-12-20T04:47:01;79.93;;;27.88;;
64520;SDS011;50896;46.714;17.322;2023-12-20T04:49:28;64.50;;;27.95;;
64520;SDS011;50896;46.714;17.322;2023-12-20T04:51:55;61.85;;;28.75;;
64520;SDS011;50896;46.714;17.322;2023-12-20T04:54:23;61.92;;;28.00;;
64520;SDS011;50896;46.714;17.322;2023-12-20T04:56:50;57.20;;;25.65;;
64520;SDS011;50896;46.714;17.322;2023-12-20T04:59:17;65.50;;;26.70;;
64520;SDS011;50896;46.714;17.322;2023-12-20T05:01:43;54.58;;;25.65;;
64520;SDS011;50896;46.714;17.322;2023-12-20T05:04:10;64.63;;;26.55;;
64520;SDS011;50896;46.714;17.322;2023-12-20T05:06:37;59.88;;;26.88;;
64520;SDS011;50896;46.714;17.322;2023-12-20T05:09:04;56.97;;;26.27;;
64520;SDS011;50896;46.714;17.322;2023-12-20T05:11:31;57.38;;;26.13;;
64520;SDS011;50896;46.714;17.322;2023-12-20T05:13:58;60.22;;;26.63;;
64520;SDS011;50896;46.714;17.322;2023-12-20T05:16:25;56.90;;;26.23;;
64520;SDS011;50896;46.714;17.322;2023-12-20T05:18:52;54.13;;;23.83;;
64520;SDS011;50896;46.714;17.322;2023-12-20T05:21:19;57.88;;;25.65;;
64520;SDS011;50896;46.714;17.322;2023-12-20T05:23:47;59.00;;;24.70;;
64520;SDS011;50896;46.714;17.322;2023-12-20T05:26:14;55.75;;;24.20;;
64520;SDS011;50896;46.714;17.322;2023-12-20T05:28:41;57.85;;;26.17;;
64520;SDS011;50896;46.714;17.322;2023-12-20T05:31:08;57.17;;;24.50;;
64520;SDS011;50896;46.714;17.322;2023-12-20T05:33:35;56.72;;;25.25;;
64520;SDS011;50896;46.714;17.322;2023-12-20T05:36:02;62.35;;;24.98;;
64520;SDS011;50896;46.714;17.322;2023-12-20T05:38:30;51.95;;;24.50;;
64520;SDS011;50896;46.714;17.322;2023-12-20T05:40:57;52.90;;;24.67;;
64520;SDS011;50896;46.714;17.322;2023-12-20T05:43:29;57.63;;;25.80;;
64520;SDS011;50896;46.714;17.322;2023-12-20T05:45:57;49.03;;;22.92;;
64520;SDS011;50896;46.714;17.322;2023-12-20T05:48:24;47.35;;;22.90;;
64520;SDS011;50896;46.714;17.322;2023-12-20T05:50:52;62.70;;;23.17;;
64520;SDS011;50896;46.714;17.322;2023-12-20T05:53:19;66.35;;;25.60;;
64520;SDS011;50896;46.714;17.322;2023-12-20T05:55:46;51.25;;;24.30;;
64520;SDS011;50896;46.714;17.322;2023-12-20T05:58:13;59.15;;;25.27;;
64520;SDS011;50896;46.714;17.322;2023-12-20T06:00:40;57.45;;;24.75;;
64520;SDS011;50896;46.714;17.322;2023-12-20T06:03:06;55.15;;;22.90;;
64520;SDS011;50896;46.714;17.322;2023-12-20T06:05:33;53.63;;;22.92;;
64520;SDS011;50896;46.714;17.322;2023-12-20T06:08:00;52.33;;;22.95;;
64520;SDS011;50896;46.714;17.322;2023-12-20T06:10:29;67.07;;;23.77;;
64520;SDS011;50896;46.714;17.322;2023-12-20T06:12:56;56.85;;;23.83;;
64520;SDS011;50896;46.714;17.322;2023-12-20T06:15:25;59.42;;;24.30;;
64520;SDS011;50896;46.714;17.322;2023-12-20T06:17:52;54.95;;;22.58;;
64520;SDS011;50896;46.714;17.322;2023-12-20T06:20:19;55.92;;;23.90;;
64520;SDS011;50896;46.714;17.322;2023-12-20T06:22:45;55.97;;;23.95;;
64520;SDS011;50896;46.714;17.322;2023-12-20T06:25:12;54.30;;;23.48;;
64520;SDS011;50896;46.714;17.322;2023-12-20T06:27:39;61.20;;;24.08;;
64520;SDS011;50896;46.714;17.322;2023-12-20T06:30:07;55.67;;;23.60;;
64520;SDS011;50896;46.714;17.322;2023-12-20T06:32:37;70.03;;;25.05;;
64520;SDS011;50896;46.714;17.322;2023-12-20T06:35:06;64.55;;;25.67;;
64520;SDS011;50896;46.714;17.322;2023-12-20T06:37:33;61.85;;;23.42;;
64520;SDS011;50896;46.714;17.322;2023-12-20T06:40:00;71.30;;;26.15;;
64520;SDS011;50896;46.714;17.322;2023-12-20T06:42:28;64.47;;;26.00;;
64520;SDS011;50896;46.714;17.322;2023-12-20T06:44:58;67.53;;;25.30;;
64520;SDS011;50896;46.714;17.322;2023-12-20T06:47:25;67.88;;;25.30;;
64520;SDS011;50896;46.714;17.322;2023-12-20T06:49:52;65.88;;;26.02;;
64520;SDS011;50896;46.714;17.322;2023-12-20T06:52:20;68.03;;;24.73;;
64520;SDS011;50896;46.714;17.322;2023-12-20T06:54:47;64.63;;;25.38;;
64520;SDS011;50896;46.714;17.322;2023-12-20T06:57:13;59.30;;;23.50;;
64520;SDS011;50896;46.714;17.322;2023-12-20T06:59:40;62.67;;;24.55;;
64520;SDS011;50896;46.714;17.322;2023-12-20T07:02:08;67.90;;;25.27;;
64520;SDS011;50896;46.714;17.322;2023-12-20T07:04:41;69.68;;;24.83;;
64520;SDS011;50896;46.714;17.322;2023-12-20T07:07:08;73.47;;;25.65;;
64520;SDS011;50896;46.714;17.322;2023-12-20T07:09:35;72.78;;;25.95;;
64520;SDS011;50896;46.714;17.322;2023-12-20T07:12:02;60.55;;;24.42;;
64520;SDS011;50896;46.714;17.322;2023-12-20T07:14:29;64.03;;;24.45;;
64520;SDS011;50896;46.714;17.322;2023-12-20T07:16:56;64.38;;;24.80;;
64520;SDS011;50896;46.714;17.322;2023-12-20T07:19:23;59.67;;;23.60;;
64520;SDS011;50896;46.714;17.322;2023-12-20T07:21:50;58.80;;;23.77;;
64520;SDS011;50896;46.714;17.322;2023-12-20T07:24:17;61.47;;;24.50;;
64520;SDS011;50896;46.714;17.322;2023-12-20T07:26:44;61.80;;;23.60;;
64520;SDS011;50896;46.714;17.322;2023-12-20T07:29:11;59.17;;;23.55;;
64520;SDS011;50896;46.714;17.322;2023-12-20T07:31:38;64.00;;;25.35;;
64520;SDS011;50896;46.714;17.322;2023-12-20T07:34:05;56.38;;;22.98;;
64520;SDS011;50896;46.714;17.322;2023-12-20T07:36:32;55.35;;;23.05;;
64520;SDS011;50896;46.714;17.322;2023-12-20T07:38:59;56.35;;;22.85;;
64520;SDS011;50896;46.714;17.322;2023-12-20T07:41:26;53.45;;;22.85;;
64520;SDS011;50896;46.714;17.322;2023-12-20T07:43:53;53.38;;;23.25;;
64520;SDS011;50896;46.714;17.322;2023-12-20T07:46:20;55.60;;;22.80;;
64520;SDS011;50896;46.714;17.322;2023-12-20T07:48:49;59.35;;;22.83;;
64520;SDS011;50896;46.714;17.322;2023-12-20T07:51:17;60.03;;;22.80;;
64520;SDS011;50896;46.714;17.322;2023-12-20T07:53:45;57.78;;;22.75;;
64520;SDS011;50896;46.714;17.322;2023-12-20T07:56:15;54.60;;;24.40;;
64520;SDS011;50896;46.714;17.322;2023-12-20T07:58:43;50.90;;;22.77;;
64520;SDS011;50896;46.714;17.322;2023-12-20T08:01:18;51.35;;;22.95;;
64520;SDS011;50896;46.714;17.322;2023-12-20T08:03:46;68.38;;;23.65;;
64520;SDS011;50896;46.714;17.322;2023-12-20T08:06:13;53.65;;;22.77;;
64520;SDS011;50896;46.714;17.322;2023-12-20T08:08:40;45.05;;;21.00;;
64520;SDS011;50896;46.714;17.322;2023-12-20T08:11:09;45.03;;;21.00;;
64520;SDS011;50896;46.714;17.322;2023-12-20T08:13:35;44.67;;;22.50;;
64520;SDS011;50896;46.714;17.322;2023-12-20T08:16:02;50.53;;;22.30;;
64520;SDS011;50896;46.714;17.322;2023-12-20T08:18:32;61.97;;;28.75;;
64520;SDS011;50896;46.714;17.322;2023-12-20T08:20:59;68.28;;;26.08;;
64520;SDS011;50896;46.714;17.322;2023-12-20T08:23:26;55.45;;;24.58;;
64520;SDS011;50896;46.714;17.322;2023-12-20T08:25:55;48.43;;;22.80;;
64520;SDS011;50896;46.714;17.322;2023-12-20T08:28:22;45.65;;;22.70;;
64520;SDS011;50896;46.714;17.322;2023-12-20T08:30:49;49.50;;;21.63;;
64520;SDS011;50896;46.714;17.322;2023-12-20T08:33:20;46.22;;;22.02;;
64520;SDS011;50896;46.714;17.322;2023-12-20T08:35:47;48.17;;;21.42;;
64520;SDS011;50896;46.714;17.322;2023-12-20T08:38:14;48.88;;;23.60;;
64520;SDS011;50896;46.714;17.322;2023-12-20T08:40:41;47.90;;;21.98;;
64520;SDS011;50896;46.714;17.322;2023-12-20T08:43:08;66.93;;;25.10;;
64520;SDS011;50896;46.714;17.322;2023-12-20T08:45:35;68.20;;;26.40;;
64520;SDS011;50896;46.714;17.322;2023-12-20T08:48:02;48.60;;;24.30;;
64520;SDS011;50896;46.714;17.322;2023-12-20T08:50:33;51.83;;;22.67;;
64520;SDS011;50896;46.714;17.322;2023-12-20T08:53:00;50.65;;;24.27;;
64520;SDS011;50896;46.714;17.322;2023-12-20T08:55:27;50.20;;;23.60;;
64520;SDS011;50896;46.714;17.322;2023-12-20T08:57:55;54.20;;;24.52;;
64520;SDS011;50896;46.714;17.322;2023-12-20T09:00:22;58.03;;;25.45;;
64520;SDS011;50896;46.714;17.322;2023-12-20T09:02:52;53.85;;;23.45;;
64520;SDS011;50896;46.714;17.322;2023-12-20T09:05:19;58.35;;;23.95;;
64520;SDS011;50896;46.714;17.322;2023-12-20T09:07:46;65.35;;;25.88;;
64520;SDS011;50896;46.714;17.322;2023-12-20T09:10:13;53.60;;;25.83;;
64520;SDS011;50896;46.714;17.322;2023-12-20T09:12:43;53.72;;;24.90;;
64520;SDS011;50896;46.714;17.322;2023-12-20T09:15:09;53.50;;;24.13;;
64520;SDS011;50896;46.714;17.322;2023-12-20T09:17:36;84.78;;;24.75;;
64520;SDS011;50896;46.714;17.322;2023-12-20T09:20:05;55.50;;;23.60;;
64520;SDS011;50896;46.714;17.322;2023-12-20T09:22:35;50.45;;;23.45;;
64520;SDS011;50896;46.714;17.322;2023-12-20T09:25:02;59.13;;;24.67;;
64520;SDS011;50896;46.714;17.322;2023-12-20T09:27:29;51.90;;;24.63;;
64520;SDS011;50896;46.714;17.322;2023-12-20T09:29:56;50.88;;;23.73;;
64520;SDS011;50896;46.714;17.322;2023-12-20T09:32:23;65.93;;;23.45;;
64520;SDS011;50896;46.714;17.322;2023-12-20T09:34:50;54.25;;;22.52;;
64520;SDS011;50896;46.714;17.322;2023-12-20T09:37:17;57.80;;;24.45;;
64520;SDS011;50896;46.714;17.322;2023-12-20T09:39:43;62.05;;;24.30;;
64520;SDS011;50896;46.714;17.322;2023-12-20T09:42:11;52.33;;;22.95;;
64520;SDS011;50896;46.714;17.322;2023-12-20T09:44:41;47.50;;;21.15;;
64520;SDS011;50896;46.714;17.322;2023-12-20T09:47:13;60.47;;;24.90;;
64520;SDS011;50896;46.714;17.322;2023-12-20T09:49:42;63.93;;;25.40;;
64520;SDS011;50896;46.714;17.322;2023-12-20T09:52:10;60.22;;;25.42;;
64520;SDS011;50896;46.714;17.322;2023-12-20T09:54:39;64.85;;;26.02;;
64520;SDS011;50896;46.714;17.322;2023-12-20T09:57:07;54.08;;;23.58;;
64520;SDS011;50896;46.714;17.322;2023-12-20T09:59:34;70.57;;;30.10;;
64520;SDS011;50896;46.714;17.322;2023-12-20T10:02:01;111.35;;;41.60;;
64520;SDS011;50896;46.714;17.322;2023-12-20T10:04:34;98.07;;;38.38;;
64520;SDS011;50896;46.714;17.322;2023-12-20T10:07:02;84.07;;;31.50;;
64520;SDS011;50896;46.714;17.322;2023-12-20T10:09:33;73.78;;;28.63;;
64520;SDS011;50896;46.714;17.322;2023-12-20T10:12:01;95.30;;;36.75;;
64520;SDS011;50896;46.714;17.322;2023-12-20T10:14:28;99.32;;;39.88;;
64520;SDS011;50896;46.714;17.322;2023-12-20T10:16:59;238.52;;;107.03;;
64520;SDS011;50896;46.714;17.322;2023-12-20T10:19:28;158.10;;;64.07;;
64520;SDS011;50896;46.714;17.322;2023-12-20T10:21:55;94.72;;;36.97;;
64520;SDS011;50896;46.714;17.322;2023-12-20T10:24:22;85.78;;;31.58;;
64520;SDS011;50896;46.714;17.322;2023-12-20T10:27:03;83.95;;;30.67;;
64520;SDS011;50896;46.714;17.322;2023-12-20T10:29:34;89.20;;;32.55;;
64520;SDS011;50896;46.714;17.322;2023-12-20T10:32:21;83.75;;;32.88;;
64520;SDS011;50896;46.714;17.322;2023-12-20T10:34:51;101.90;;;35.58;;
64520;SDS011;50896;46.714;17.322;2023-12-20T10:37:19;84.65;;;32.85;;
64520;SDS011;50896;46.714;17.322;2023-12-20T10:39:54;89.57;;;33.80;;
64520;SDS011;50896;46.714;17.322;2023-12-20T10:42:26;90.50;;;32.33;;
64520;SDS011;50896;46.714;17.322;2023-12-20T10:44:53;75.82;;;31.83;;
64520;SDS011;50896;46.714;17.322;2023-12-20T10:47:20;78.45;;;32.03;;
64520;SDS011;50896;46.714;17.322;2023-12-20T10:49:47;69.60;;;31.23;;
64520;SDS011;50896;46.714;17.322;2023-12-20T10:52:15;81.50;;;30.83;;
64520;SDS011;50896;46.714;17.322;2023-12-20T10:54:44;80.85;;;32.45;;
64520;SDS011;50896;46.714;17.322;2023-12-20T10:57:11;74.13;;;30.65;;
64520;SDS011;50896;46.714;17.322;2023-12-20T10:59:39;91.55;;;33.25;;
64520;SDS011;50896;46.714;17.322;2023-12-20T11:02:06;80.00;;;33.38;;
64520;SDS011;50896;46.714;17.322;2023-12-20T11:04:37;306.33;;;132.90;;
64520;SDS011;50896;46.714;17.322;2023-12-20T11:07:54;151.40;;;63.83;;
64520;SDS011;50896;46.714;17.322;2023-12-20T11:12:48;96.50;;;39.58;;
64520;SDS011;50896;46.714;17.322;2023-12-20T11:15:21;84.40;;;35.25;;
64520;SDS011;50896;46.714;17.322;2023-12-20T11:17:55;85.95;;;35.30;;
64520;SDS011;50896;46.714;17.322;2023-12-20T11:20:39;81.55;;;32.70;;
64520;SDS011;50896;46.714;17.322;2023-12-20T11:23:07;69.60;;;28.35;;
64520;SDS011;50896;46.714;17.322;2023-12-20T11:25:45;78.65;;;30.90;;
64520;SDS011;50896;46.714;17.322;2023-12-20T11:28:14;72.32;;;30.88;;
64520;SDS011;50896;46.714;17.322;2023-12-20T11:30:48;70.78;;;30.58;;
64520;SDS011;50896;46.714;17.322;2023-12-20T11:33:21;76.07;;;31.77;;
64520;SDS011;50896;46.714;17.322;2023-12-20T11:35:57;90.68;;;34.30;;
64520;SDS011;50896;46.714;17.322;2023-12-20T11:38:26;80.18;;;31.63;;
64520;SDS011;50896;46.714;17.322;2023-12-20T11:40:53;82.38;;;31.75;;
64520;SDS011;50896;46.714;17.322;2023-12-20T11:43:37;84.53;;;33.97;;
64520;SDS011;50896;46.714;17.322;2023-12-20T11:46:07;91.07;;;34.50;;
64520;SDS011;50896;46.714;17.322;2023-12-20T11:48:36;82.55;;;32.65;;
64520;SDS011;50896;46.714;17.322;2023-12-20T11:51:10;90.40;;;33.67;;
64520;SDS011;50896;46.714;17.322;2023-12-20T11:53:39;87.70;;;32.83;;
64520;SDS011;50896;46.714;17.322;2023-12-20T11:56:09;91.90;;;32.83;;
64520;SDS011;50896;46.714;17.322;2023-12-20T11:58:36;84.38;;;32.03;;
64520;SDS011;50896;46.714;17.322;2023-12-20T12:01:04;84.10;;;33.67;;
64520;SDS011;50896;46.714;17.322;2023-12-20T12:03:34;76.65;;;31.63;;
64520;SDS011;50896;46.714;17.322;2023-12-20T12:06:01;82.78;;;32.40;;
64520;SDS011;50896;46.714;17.322;2023-12-20T12:10:58;81.53;;;32.60;;
64520;SDS011;50896;46.714;17.322;2023-12-20T12:13:25;90.00;;;32.30;;
64520;SDS011;50896;46.714;17.322;2023-12-20T12:15:55;79.53;;;33.25;;
64520;SDS011;50896;46.714;17.322;2023-12-20T12:18:22;85.85;;;32.58;;
64520;SDS011;50896;46.714;17.322;2023-12-20T12:20:49;86.57;;;33.95;;
64520;SDS011;50896;46.714;17.322;2023-12-20T12:23:22;90.07;;;35.28;;
64520;SDS011;50896;46.714;17.322;2023-12-20T12:25:50;96.95;;;36.13;;
64520;SDS011;50896;46.714;17.322;2023-12-20T12:28:17;98.80;;;35.83;;
64520;SDS011;50896;46.714;17.322;2023-12-20T12:30:55;90.90;;;33.30;;
64520;SDS011;50896;46.714;17.322;2023-12-20T12:33:26;97.03;;;33.15;;
64520;SDS011;50896;46.714;17.322;2023-12-20T12:35:54;87.60;;;31.95;;
64520;SDS011;50896;46.714;17.322;2023-12-20T12:38:21;86.57;;;32.10;;
64520;SDS011;50896;46.714;17.322;2023-12-20T12:40:49;98.85;;;33.45;;
64520;SDS011;50896;46.714;17.322;2023-12-20T12:43:16;93.25;;;34.13;;
64520;SDS011;50896;46.714;17.322;2023-12-20T12:45:43;91.65;;;34.15;;
64520;SDS011;50896;46.714;17.322;2023-12-20T12:48:10;93.15;;;35.38;;
64520;SDS011;50896;46.714;17.322;2023-12-20T12:50:37;85.78;;;33.30;;
64520;SDS011;50896;46.714;17.322;2023-12-20T12:53:04;89.82;;;34.45;;
64520;SDS011;50896;46.714;17.322;2023-12-20T12:55:31;89.93;;;33.65;;
64520;SDS011;50896;46.714;17.322;2023-12-20T12:57:58;81.97;;;33.83;;
64520;SDS011;50896;46.714;17.322;2023-12-20T13:00:25;101.32;;;36.10;;
64520;SDS011;50896;46.714;17.322;2023-12-20T13:02:52;87.55;;;33.90;;
64520;SDS011;50896;46.714;17.322;2023-12-20T13:05:19;94.70;;;36.10;;
64520;SDS011;50896;46.714;17.322;2023-12-20T13:07:46;92.70;;;36.38;;
64520;SDS011;50896;46.714;17.322;2023-12-20T13:10:14;81.35;;;33.42;;
64520;SDS011;50896;46.714;17.322;2023-12-20T13:12:44;93.50;;;35.00;;
64520;SDS011;50896;46.714;17.322;2023-12-20T13:15:11;96.15;;;36.33;;
64520;SDS011;50896;46.714;17.322;2023-12-20T13:17:38;98.78;;;37.40;;
64520;SDS011;50896;46.714;17.322;2023-12-20T13:20:06;99.18;;;36.45;;
64520;SDS011;50896;46.714;17.322;2023-12-20T13:22:34;107.70;;;36.83;;
64520;SDS011;50896;46.714;17.322;2023-12-20T13:25:01;103.88;;;36.72;;
64520;SDS011;50896;46.714;17.322;2023-12-20T13:27:29;97.90;;;33.83;;
64520;SDS011;50896;46.714;17.322;2023-12-20T13:29:56;104.93;;;37.22;;
64520;SDS011;50896;46.714;17.322;2023-12-20T13:32:23;103.60;;;36.17;;
64520;SDS011;50896;46.714;17.322;2023-12-20T13:34:50;101.20;;;37.47;;
64520;SDS011;50896;46.714;17.322;2023-12-20T13:37:17;109.22;;;36.55;;
64520;SDS011;50896;46.714;17.322;2023-12-20T13:39:45;96.95;;;34.85;;
64520;SDS011;50896;46.714;17.322;2023-12-20T13:42:12;101.75;;;34.13;;
64520;SDS011;50896;46.714;17.322;2023-12-20T13:44:39;97.82;;;35.28;;
64520;SDS011;50896;46.714;17.322;2023-12-20T13:47:06;94.18;;;34.00;;
64520;SDS011;50896;46.714;17.322;2023-12-20T13:49:33;97.07;;;35.50;;
64520;SDS011;50896;46.714;17.322;2023-12-20T13:52:00;100.97;;;35.75;;
64520;SDS011;50896;46.714;17.322;2023-12-20T13:54:27;125.05;;;39.72;;
64520;SDS011;50896;46.714;17.322;2023-12-20T13:56:53;109.38;;;39.17;;
64520;SDS011;50896;46.714;17.322;2023-12-20T13:59:37;124.15;;;41.42;;
64520;SDS011;50896;46.714;17.322;2023-12-20T14:02:04;124.28;;;39.97;;
64520;SDS011;50896;46.714;17.322;2023-12-20T14:04:32;106.03;;;38.88;;
64520;SDS011;50896;46.714;17.322;2023-12-20T14:07:09;119.30;;;41.25;;
64520;SDS011;50896;46.714;17.322;2023-12-20T14:09:38;112.07;;;41.17;;
64520;SDS011;50896;46.714;17.322;2023-12-20T14:12:06;106.75;;;39.95;;
64520;SDS011;50896;46.714;17.322;2023-12-20T14:14:33;113.03;;;41.80;;
64520;SDS011;50896;46.714;17.322;2023-12-20T14:16:59;109.50;;;41.15;;
64520;SDS011;50896;46.714;17.322;2023-12-20T14:19:26;114.60;;;41.17;;